createdAt,value
2023-02-03T00:00:10.086Z,24.80
2023-02-03T00:02:39.036Z,24.80
2023-02-03T00:05:08.568Z,24.80
2023-02-03T00:07:39.687Z,24.80
2023-02-03T00:10:09.509Z,24.70
2023-02-03T00:12:38.497Z,24.70
2023-02-03T00:15:07.893Z,24.60
2023-02-03T00:17:36.820Z,24.60
2023-02-03T00:20:05.955Z,24.60
2023-02-03T00:22:34.852Z,24.50
2023-02-03T00:25:03.811Z,24.50
2023-02-03T00:27:33.159Z,24.50
2023-02-03T00:30:02.184Z,24.40
2023-02-03T00:32:31.650Z,24.40
2023-02-03T00:35:00.755Z,24.30
2023-02-03T00:37:29.863Z,24.30
2023-02-03T00:39:58.885Z,24.30
2023-02-03T00:42:27.887Z,24.30
2023-02-03T00:44:56.893Z,24.20
2023-02-03T00:47:25.830Z,24.30
2023-02-03T00:49:54.811Z,24.20
2023-02-03T00:52:23.740Z,24.20
2023-02-03T00:54:52.646Z,24.20
2023-02-03T00:57:21.572Z,24.20
2023-02-03T00:59:50.644Z,24.20
2023-02-03T01:02:19.721Z,24.30
2023-02-03T01:04:48.741Z,24.30
2023-02-03T01:07:18.025Z,24.30
2023-02-03T01:09:46.924Z,24.30
2023-02-03T01:12:15.892Z,24.30
2023-02-03T01:14:44.819Z,24.30
2023-02-03T01:17:13.742Z,24.30
2023-02-03T01:19:42.668Z,24.40
2023-02-03T01:22:11.565Z,24.40
2023-02-03T01:24:40.734Z,24.40
2023-02-03T01:27:09.638Z,24.40
2023-02-03T01:29:38.689Z,24.50
2023-02-03T01:32:07.651Z,24.50
2023-02-03T01:34:36.585Z,24.50
2023-02-03T01:37:05.524Z,24.60
2023-02-03T01:39:34.465Z,24.60
2023-02-03T01:42:03.693Z,24.60
2023-02-03T01:44:44.083Z,24.70
2023-02-03T01:47:36.143Z,24.70
2023-02-03T01:50:22.357Z,24.80
2023-02-03T01:53:08.297Z,24.80
2023-02-03T01:55:41.417Z,24.80
2023-02-03T01:58:37.714Z,24.80
2023-02-03T02:01:06.761Z,24.90
2023-02-03T02:03:50.113Z,25.00
2023-02-03T02:06:19.112Z,25.00
2023-02-03T02:08:53.553Z,25.10
2023-02-03T02:11:23.060Z,25.10
2023-02-03T02:13:55.131Z,25.20
2023-02-03T02:16:50.302Z,25.20
2023-02-03T02:19:48.256Z,25.30
2023-02-03T02:22:50.644Z,25.30
2023-02-03T02:25:40.541Z,25.30
2023-02-03T02:28:51.174Z,25.40
2023-02-03T02:31:48.188Z,25.50
2023-02-03T02:34:41.930Z,25.50
2023-02-03T02:37:47.776Z,25.60
2023-02-03T02:40:47.899Z,25.60
2023-02-03T02:43:57.995Z,25.70
2023-02-03T02:46:35.590Z,25.80
2023-02-03T02:49:13.618Z,25.90
2023-02-03T02:51:46.261Z,25.90
2023-02-03T02:54:19.382Z,26.00
2023-02-03T02:56:53.016Z,26.00
2023-02-03T02:59:22.245Z,26.10
2023-02-03T03:01:52.529Z,26.20
2023-02-03T03:04:26.295Z,26.20
2023-02-03T03:07:09.899Z,26.30
2023-02-03T03:09:54.081Z,26.30
2023-02-03T03:12:31.790Z,26.40
2023-02-03T03:15:06.147Z,26.40
2023-02-03T03:17:46.228Z,26.50
2023-02-03T03:20:20.095Z,26.60
2023-02-03T03:22:57.641Z,26.60
2023-02-03T03:25:48.827Z,26.60
2023-02-03T03:28:25.943Z,26.70
2023-02-03T03:30:55.451Z,26.70
2023-02-03T03:33:25.154Z,26.70
2023-02-03T03:35:56.869Z,26.70
2023-02-03T03:38:34.190Z,26.70
2023-02-03T03:41:17.574Z,26.70
2023-02-03T03:43:48.688Z,26.70
2023-02-03T03:46:23.254Z,26.70
2023-02-03T03:49:03.054Z,26.70
2023-02-03T03:51:55.855Z,26.60
2023-02-03T03:54:27.345Z,26.70
2023-02-03T03:57:07.533Z,26.70
2023-02-03T03:59:41.375Z,26.70
2023-02-03T04:02:10.443Z,26.70
2023-02-03T04:04:41.836Z,26.70
2023-02-03T04:07:10.812Z,26.70
2023-02-03T04:09:40.130Z,26.70
2023-02-03T04:12:17.694Z,26.60
2023-02-03T04:14:46.591Z,26.60
2023-02-03T04:17:15.509Z,26.60
2023-02-03T04:19:44.443Z,26.60
2023-02-03T04:22:13.359Z,26.60
2023-02-03T04:24:42.274Z,26.60
2023-02-03T04:27:11.249Z,26.50
2023-02-03T04:29:40.145Z,26.50
2023-02-03T04:32:09.164Z,26.40
2023-02-03T04:34:38.129Z,26.40
2023-02-03T04:37:07.117Z,26.40
2023-02-03T04:39:36.187Z,26.40
2023-02-03T04:42:05.299Z,26.30
2023-02-03T04:44:37.273Z,26.30
2023-02-03T04:47:06.272Z,26.30
2023-02-03T04:49:35.190Z,26.30
2023-02-03T04:52:04.106Z,26.30
2023-02-03T04:54:33.010Z,26.20
2023-02-03T04:57:02.659Z,26.20
2023-02-03T04:59:31.526Z,26.20
2023-02-03T05:02:00.540Z,26.20
2023-02-03T05:04:29.420Z,26.20
2023-02-03T05:06:58.708Z,26.10
2023-02-03T05:09:28.108Z,26.10
2023-02-03T05:11:57.251Z,26.10
2023-02-03T05:14:26.200Z,26.10
2023-02-03T05:16:55.217Z,26.10
2023-02-03T05:19:24.189Z,26.00
2023-02-03T05:21:53.096Z,26.10
2023-02-03T05:24:22.166Z,26.00
2023-02-03T05:26:51.210Z,26.00
2023-02-03T05:29:20.136Z,26.00
2023-02-03T05:31:49.063Z,26.00
2023-02-03T05:34:18.043Z,26.00
2023-02-03T05:36:46.912Z,26.00
2023-02-03T05:39:15.915Z,26.00
2023-02-03T05:41:54.163Z,25.90
2023-02-03T05:44:26.463Z,26.00
2023-02-03T05:46:56.821Z,26.00
2023-02-03T05:49:26.668Z,26.00
2023-02-03T05:51:56.665Z,26.00
2023-02-03T05:54:25.916Z,26.00
2023-02-03T05:56:54.888Z,26.10
2023-02-03T05:59:23.779Z,26.10
2023-02-03T06:01:52.832Z,26.10
2023-02-03T06:04:21.803Z,26.10
2023-02-03T06:06:50.705Z,26.20
2023-02-03T06:09:19.608Z,26.20
2023-02-03T06:11:48.487Z,26.30
2023-02-03T06:14:17.401Z,26.30
2023-02-03T06:16:46.400Z,26.40
2023-02-03T06:19:16.327Z,26.40
2023-02-03T06:21:45.572Z,26.50
2023-02-03T06:24:14.737Z,26.50
2023-02-03T06:26:43.706Z,26.60
2023-02-03T06:29:12.674Z,26.60
2023-02-03T06:31:41.765Z,26.70
2023-02-03T06:34:11.136Z,26.90
2023-02-03T06:36:40.159Z,26.90
2023-02-03T06:39:09.131Z,27.10
2023-02-03T06:41:41.073Z,27.20
2023-02-03T06:44:10.309Z,27.40
2023-02-03T06:46:39.761Z,27.60
2023-02-03T06:49:08.735Z,27.70
2023-02-03T06:51:38.071Z,27.90
2023-02-03T06:54:07.301Z,28.10
2023-02-03T06:56:36.221Z,28.30
2023-02-03T06:59:05.373Z,28.50
2023-02-03T07:01:34.497Z,28.60
2023-02-03T07:04:03.447Z,28.70
2023-02-03T07:06:35.122Z,28.80
2023-02-03T07:09:06.730Z,29.00
2023-02-03T07:11:35.772Z,29.20
2023-02-03T07:14:05.147Z,29.20
2023-02-03T07:16:35.361Z,29.40
2023-02-03T07:19:04.354Z,29.40
2023-02-03T07:21:33.595Z,29.50
2023-02-03T07:24:04.074Z,29.50
2023-02-03T07:26:32.931Z,29.70
2023-02-03T07:29:01.915Z,29.80
2023-02-03T07:31:30.977Z,29.80
2023-02-03T07:33:59.944Z,29.90
2023-02-03T07:36:30.015Z,30.00
2023-02-03T07:38:58.868Z,30.10
2023-02-03T07:41:27.760Z,30.20
2023-02-03T07:43:56.669Z,30.30
2023-02-03T07:46:25.894Z,30.30
2023-02-03T07:48:54.967Z,30.40
2023-02-03T07:51:24.028Z,30.50
2023-02-03T07:53:53.036Z,30.60
2023-02-03T07:56:21.904Z,30.60
2023-02-03T07:58:54.403Z,30.50
2023-02-03T08:01:23.707Z,30.50
2023-02-03T08:03:54.868Z,30.50
2023-02-03T08:06:24.436Z,30.40
2023-02-03T08:08:55.264Z,30.40
2023-02-03T08:11:27.962Z,30.30
2023-02-03T08:13:56.857Z,30.30
2023-02-03T08:16:25.783Z,30.30
2023-02-03T08:18:55.416Z,30.30
2023-02-03T08:21:24.293Z,30.30
2023-02-03T08:23:53.177Z,30.30
2023-02-03T08:26:22.046Z,30.30
2023-02-03T08:28:51.738Z,30.40
2023-02-03T08:31:20.725Z,30.40
2023-02-03T08:33:49.744Z,30.50
2023-02-03T08:36:18.670Z,30.50
2023-02-03T08:38:47.778Z,30.50
2023-02-03T08:41:19.377Z,30.40
2023-02-03T08:43:48.575Z,30.50
2023-02-03T08:46:17.443Z,30.40
2023-02-03T08:48:46.356Z,30.40
2023-02-03T08:51:17.947Z,30.40
2023-02-03T08:53:46.918Z,30.30
2023-02-03T08:56:15.990Z,30.30
2023-02-03T08:58:44.833Z,30.30
2023-02-03T09:01:16.555Z,30.30
2023-02-03T09:03:45.473Z,30.30
2023-02-03T09:06:17.718Z,30.40
2023-02-03T09:08:47.850Z,30.40
2023-02-03T09:11:19.418Z,30.50
2023-02-03T09:13:49.695Z,30.50
2023-02-03T09:16:19.942Z,30.50
2023-02-03T09:18:49.205Z,30.50
2023-02-03T09:21:32.055Z,30.50
2023-02-03T09:24:04.472Z,30.60
2023-02-03T09:26:33.410Z,30.60
2023-02-03T09:29:02.350Z,30.50
2023-02-03T09:31:31.326Z,30.50
2023-02-03T09:34:01.679Z,30.40
2023-02-03T09:36:30.614Z,30.30
2023-02-03T09:38:59.873Z,30.30
2023-02-03T09:41:28.705Z,30.30
2023-02-03T09:44:36.042Z,30.30
2023-02-03T09:47:25.792Z,30.20
2023-02-03T09:50:12.543Z,30.00
2023-02-03T09:52:45.294Z,30.00
2023-02-03T09:55:32.212Z,29.80
2023-02-03T09:58:19.402Z,29.80
2023-02-03T10:01:11.106Z,29.70
2023-02-03T10:04:20.245Z,29.60
2023-02-03T10:06:49.461Z,29.50
2023-02-03T10:09:25.638Z,29.40
2023-02-03T10:12:32.221Z,29.40
2023-02-03T10:15:05.144Z,29.30
2023-02-03T10:17:59.065Z,29.20
2023-02-03T10:20:53.266Z,29.10
2023-02-03T10:23:42.748Z,29.00
2023-02-03T10:26:20.255Z,28.90
2023-02-03T10:29:04.385Z,28.80
2023-02-03T10:31:37.220Z,28.80
2023-02-03T10:34:17.777Z,28.70
2023-02-03T10:37:00.313Z,28.70
2023-02-03T10:39:59.158Z,28.60
2023-02-03T10:42:48.905Z,28.50
2023-02-03T10:45:18.224Z,28.50
2023-02-03T10:47:56.594Z,28.40
2023-02-03T10:50:33.898Z,28.40
2023-02-03T10:53:33.378Z,28.30
2023-02-03T10:56:12.069Z,28.30
2023-02-03T10:58:47.541Z,28.20
2023-02-03T11:01:19.294Z,28.10
2023-02-03T11:04:04.909Z,28.10
2023-02-03T11:06:35.194Z,28.00
2023-02-03T11:09:22.921Z,27.90
2023-02-03T11:12:22.276Z,27.90
2023-02-03T11:14:55.607Z,27.80
2023-02-03T11:17:28.279Z,27.80
2023-02-03T11:20:14.417Z,27.80
2023-02-03T11:22:46.039Z,27.70
2023-02-03T11:25:35.282Z,27.70
2023-02-03T11:28:09.314Z,27.70
2023-02-03T11:30:39.881Z,27.60
2023-02-03T11:33:35.041Z,27.60
2023-02-03T11:36:06.502Z,27.50
2023-02-03T11:38:43.406Z,27.50
2023-02-03T11:41:24.022Z,27.50
2023-02-03T11:43:59.005Z,27.40
2023-02-03T11:46:28.658Z,27.40
2023-02-03T11:49:15.202Z,27.40
2023-02-03T11:51:56.912Z,27.30
2023-02-03T11:54:44.180Z,27.30
2023-02-03T11:58:01.286Z,27.30
2023-02-03T12:01:00.280Z,27.30
2023-02-03T12:04:05.142Z,27.30
2023-02-03T12:06:56.325Z,27.30
2023-02-03T12:09:41.469Z,27.30
2023-02-03T12:12:39.201Z,27.20
2023-02-03T12:15:17.182Z,27.20
2023-02-03T12:18:01.338Z,27.10
2023-02-03T12:20:48.749Z,27.10
2023-02-03T12:23:32.260Z,27.10
2023-02-03T12:26:10.451Z,27.00
2023-02-03T12:29:02.482Z,27.00
2023-02-03T12:32:01.361Z,26.90
2023-02-03T12:34:50.373Z,27.00
2023-02-03T12:37:55.087Z,26.90
2023-02-03T12:40:29.394Z,26.90
2023-02-03T12:43:24.730Z,26.90
2023-02-03T12:46:02.392Z,26.90
2023-02-03T12:48:54.361Z,26.80
2023-02-03T12:52:03.437Z,26.70
2023-02-03T12:54:35.777Z,26.70
2023-02-03T12:57:28.544Z,26.70
2023-02-03T13:00:17.199Z,26.60
2023-02-03T13:03:15.037Z,26.60
2023-02-03T13:05:53.877Z,26.50
2023-02-03T13:08:52.791Z,26.50
2023-02-03T13:11:36.941Z,26.50
2023-02-03T13:14:43.996Z,26.40
2023-02-03T13:17:23.723Z,26.40
2023-02-03T13:19:59.726Z,26.30
2023-02-03T13:22:29.308Z,26.30
2023-02-03T13:25:19.740Z,26.30
2023-02-03T13:28:06.994Z,26.20
2023-02-03T13:30:35.941Z,26.20
2023-02-03T13:33:29.710Z,26.10
2023-02-03T13:36:27.518Z,26.10
2023-02-03T13:39:13.350Z,26.00
2023-02-03T13:41:53.199Z,26.00
2023-02-03T13:44:29.835Z,26.00
2023-02-03T13:47:00.778Z,25.90
2023-02-03T13:49:37.360Z,25.90
2023-02-03T13:52:06.781Z,25.90
2023-02-03T13:54:44.266Z,25.80
2023-02-03T13:57:27.818Z,25.80
2023-02-03T13:59:56.978Z,25.70
2023-02-03T14:02:25.850Z,25.70
2023-02-03T14:04:59.264Z,25.70
2023-02-03T14:07:41.969Z,25.60
2023-02-03T14:10:24.604Z,25.60
2023-02-03T14:12:53.427Z,25.60
2023-02-03T14:15:24.689Z,25.50
2023-02-03T14:17:53.670Z,25.50
2023-02-03T14:20:28.802Z,25.50
2023-02-03T14:23:09.678Z,25.50
2023-02-03T14:25:49.736Z,25.50
2023-02-03T14:28:44.095Z,25.40
2023-02-03T14:31:24.327Z,25.40
2023-02-03T14:33:53.358Z,25.40
2023-02-03T14:36:56.613Z,25.30
2023-02-03T14:39:49.911Z,25.30
2023-02-03T14:42:45.920Z,25.30
2023-02-03T14:45:53.414Z,25.30
2023-02-03T14:48:51.135Z,25.30
2023-02-03T14:51:45.503Z,25.20
2023-02-03T14:54:23.748Z,25.20
2023-02-03T14:57:29.273Z,25.20
2023-02-03T15:00:34.879Z,25.10
2023-02-03T15:03:15.168Z,25.10
2023-02-03T15:05:53.376Z,25.10
2023-02-03T15:08:47.686Z,25.10
2023-02-03T15:11:35.775Z,25.10
2023-02-03T15:14:24.782Z,25.10
2023-02-03T15:17:05.476Z,25.00
2023-02-03T15:19:37.265Z,25.00
2023-02-03T15:22:28.530Z,25.00
2023-02-03T15:25:05.579Z,25.00
2023-02-03T15:27:35.201Z,24.90
2023-02-03T15:30:30.860Z,24.90
2023-02-03T15:33:13.178Z,24.90
2023-02-03T15:35:45.173Z,24.80
2023-02-03T15:38:22.499Z,24.80
2023-02-03T15:41:00.128Z,24.80
2023-02-03T15:43:34.201Z,24.80
2023-02-03T15:46:18.888Z,24.80
2023-02-03T15:49:19.125Z,24.80
2023-02-03T15:52:08.137Z,24.80
2023-02-03T15:54:47.262Z,24.80
2023-02-03T15:57:25.501Z,24.70
2023-02-03T16:00:13.825Z,24.80
2023-02-03T16:02:47.119Z,24.70
2023-02-03T16:05:36.160Z,24.70
2023-02-03T16:08:35.852Z,24.70
2023-02-03T16:11:22.295Z,24.70
2023-02-03T16:13:51.393Z,24.70
2023-02-03T16:16:25.123Z,24.70
2023-02-03T16:19:12.433Z,24.70
2023-02-03T16:21:53.010Z,24.70
2023-02-03T16:24:46.938Z,24.70
2023-02-03T16:27:28.328Z,24.70
2023-02-03T16:30:44.536Z,24.60
2023-02-03T16:33:36.259Z,24.70
2023-02-03T16:36:34.113Z,24.60
2023-02-03T16:39:30.858Z,24.60
2023-02-03T16:42:19.949Z,24.60
2023-02-03T16:45:06.953Z,24.60
2023-02-03T16:47:53.949Z,24.60
2023-02-03T16:50:43.968Z,24.60
2023-02-03T16:53:21.136Z,24.60
2023-02-03T16:55:50.925Z,24.60
2023-02-03T16:58:20.032Z,24.60
2023-02-03T17:00:51.830Z,24.60
2023-02-03T17:03:26.928Z,24.60
2023-02-03T17:05:57.291Z,24.60
2023-02-03T17:08:27.701Z,24.60
2023-02-03T17:10:56.763Z,24.60
2023-02-03T17:13:26.013Z,24.60
2023-02-03T17:15:54.997Z,24.60
2023-02-03T17:18:24.283Z,24.60
2023-02-03T17:20:54.089Z,24.60
2023-02-03T17:23:23.150Z,24.60
2023-02-03T17:25:52.469Z,24.60
2023-02-03T17:28:21.631Z,24.60
2023-02-03T17:31:01.753Z,24.60
2023-02-03T17:33:31.208Z,24.50
2023-02-03T17:36:17.544Z,24.50
2023-02-03T17:55:03.926Z,24.50
2023-02-03T17:57:34.616Z,24.50
2023-02-03T18:00:03.640Z,24.50
2023-02-03T18:02:32.725Z,24.50
2023-02-03T18:05:01.749Z,24.50
2023-02-03T18:07:30.813Z,24.50
2023-02-03T18:09:59.781Z,24.50
2023-02-03T18:12:28.773Z,24.50
2023-02-03T18:14:57.911Z,24.50
2023-02-03T18:17:26.829Z,24.50
2023-02-03T18:19:56.590Z,24.40
2023-02-03T18:22:25.569Z,24.40
2023-02-03T18:24:56.172Z,24.40
2023-02-03T18:27:25.032Z,24.40
2023-02-03T18:29:54.048Z,24.40
2023-02-03T18:32:22.971Z,24.30
2023-02-03T18:34:52.154Z,24.30
2023-02-03T18:37:20.995Z,24.30
2023-02-03T18:39:49.900Z,24.30
2023-02-03T18:42:18.772Z,24.30
2023-02-03T18:44:47.629Z,24.20
2023-02-03T18:47:16.551Z,24.20
2023-02-03T18:49:45.513Z,24.20
2023-02-03T18:52:14.444Z,24.20
2023-02-03T18:54:43.293Z,24.20
2023-02-03T18:57:15.031Z,24.20
2023-02-03T18:59:45.089Z,24.20
2023-02-03T19:02:14.248Z,24.20
2023-02-03T19:04:43.148Z,24.10
2023-02-03T19:07:13.536Z,24.10
2023-02-03T19:09:42.595Z,24.10
2023-02-03T19:12:11.705Z,24.10
2023-02-03T19:14:40.631Z,24.10
2023-02-03T19:17:11.284Z,24.10
2023-02-03T19:19:40.231Z,24.10
2023-02-03T19:22:09.214Z,24.10
2023-02-03T19:24:38.134Z,24.10
2023-02-03T19:27:07.172Z,24.00
2023-02-03T19:29:36.338Z,24.10
2023-02-03T19:32:05.487Z,24.10
2023-02-03T19:34:34.418Z,24.10
2023-02-03T19:37:03.424Z,24.10
2023-02-03T19:39:33.462Z,24.00
2023-02-03T19:42:02.615Z,24.00
2023-02-03T19:44:31.587Z,24.10
2023-02-03T19:47:00.616Z,24.00
2023-02-03T19:49:29.806Z,24.00
2023-02-03T19:51:58.686Z,24.00
2023-02-03T19:54:27.708Z,24.00
2023-02-03T19:56:56.707Z,24.00
2023-02-03T19:59:25.616Z,24.00
2023-02-03T20:01:55.414Z,24.00
2023-02-03T20:04:26.019Z,24.00
2023-02-03T20:06:54.980Z,24.00
2023-02-03T20:09:23.918Z,24.00
2023-02-03T20:11:52.926Z,24.00
2023-02-03T20:14:21.839Z,24.00
2023-02-03T20:16:52.214Z,24.00
2023-02-03T20:19:21.417Z,24.00
2023-02-03T20:21:50.677Z,24.00
2023-02-03T20:24:19.719Z,24.00
2023-02-03T20:26:48.792Z,24.00
2023-02-03T20:29:17.738Z,24.00
2023-02-03T20:31:46.804Z,24.00
2023-02-03T20:34:15.785Z,24.00
2023-02-03T20:36:44.706Z,24.00
2023-02-03T20:39:23.277Z,24.00
2023-02-03T20:41:52.231Z,24.00
2023-02-03T20:44:21.468Z,24.00
2023-02-03T20:46:50.541Z,24.00
2023-02-03T20:49:20.953Z,24.00
2023-02-03T20:51:49.924Z,23.90
2023-02-03T20:54:22.485Z,23.90
2023-02-03T20:56:51.539Z,23.90
2023-02-03T20:59:21.458Z,23.90
2023-02-03T21:01:51.895Z,23.90
2023-02-03T21:04:39.533Z,23.90
2023-02-03T21:07:17.314Z,23.80
2023-02-03T21:09:46.424Z,23.80
2023-02-03T21:12:16.131Z,23.80
2023-02-03T21:14:46.840Z,23.80
2023-02-03T21:17:27.016Z,23.80
2023-02-03T21:19:56.624Z,23.70
2023-02-03T21:22:28.329Z,23.70
2023-02-03T21:25:01.905Z,23.70
2023-02-03T21:27:33.521Z,23.70
2023-02-03T21:30:23.792Z,23.60
2023-02-03T21:32:52.749Z,23.60
2023-02-03T21:35:35.993Z,23.60
2023-02-03T21:38:29.210Z,23.60
2023-02-03T21:40:59.041Z,23.60
2023-02-03T21:43:28.303Z,23.60
2023-02-03T21:45:57.725Z,23.60
2023-02-03T21:48:38.737Z,23.60
2023-02-03T21:51:24.529Z,23.60
2023-02-03T21:53:56.717Z,23.60
2023-02-03T21:56:36.491Z,23.60
2023-02-03T21:59:06.047Z,23.60
2023-02-03T22:01:38.389Z,23.60
2023-02-03T22:04:07.710Z,23.60
2023-02-03T22:06:42.519Z,23.60
2023-02-03T22:09:14.230Z,23.60
2023-02-03T22:11:43.324Z,23.60
2023-02-03T22:14:13.311Z,23.50
2023-02-03T22:16:42.639Z,23.50
2023-02-03T22:19:11.926Z,23.50
2023-02-03T22:21:41.055Z,23.50
2023-02-03T22:24:09.966Z,23.50
2023-02-03T22:26:38.845Z,23.50
2023-02-03T22:29:07.854Z,23.50
2023-02-03T22:31:36.811Z,23.50
2023-02-03T22:34:05.779Z,23.50
2023-02-03T22:36:34.728Z,23.50
2023-02-03T22:39:03.588Z,23.50
2023-02-03T22:41:32.512Z,23.50
2023-02-03T22:44:01.480Z,23.50
2023-02-03T22:46:30.376Z,23.50
2023-02-03T22:48:59.343Z,23.50
2023-02-03T22:51:28.306Z,23.50
2023-02-03T22:53:57.162Z,23.60
2023-02-03T22:56:26.114Z,23.60
2023-02-03T22:58:54.983Z,23.50
2023-02-03T23:01:23.869Z,23.60
2023-02-03T23:03:52.704Z,23.50
2023-02-03T23:06:21.668Z,23.50
2023-02-03T23:08:50.546Z,23.50
2023-02-03T23:11:20.303Z,23.50
2023-02-03T23:13:50.109Z,23.50
2023-02-03T23:16:19.084Z,23.50
2023-02-03T23:18:48.407Z,23.50
2023-02-03T23:21:17.314Z,23.50
2023-02-03T23:23:46.192Z,23.50
2023-02-03T23:26:15.065Z,23.50
2023-02-03T23:28:43.967Z,23.40
2023-02-03T23:31:12.948Z,23.40
2023-02-03T23:34:02.110Z,23.40
2023-02-03T23:36:30.979Z,23.30
2023-02-03T23:39:00.174Z,23.40
2023-02-03T23:41:29.066Z,23.40
2023-02-03T23:43:57.997Z,23.30
2023-02-03T23:46:27.313Z,23.30
2023-02-03T23:48:56.301Z,23.20
2023-02-03T23:51:25.505Z,23.20
2023-02-03T23:53:54.419Z,23.20
2023-02-03T23:56:23.297Z,23.20
2023-02-03T23:58:52.190Z,23.20
